createdAt,value
2018-08-09T00:02:05.649Z,99774.12
2018-08-09T00:04:34.772Z,99780.48
2018-08-09T00:07:04.149Z,99776.47
2018-08-09T00:09:33.926Z,99787.02
2018-08-09T00:12:03.677Z,99788.28
2018-08-09T00:14:32.883Z,99793.91
2018-08-09T00:17:02.046Z,99790.09
2018-08-09T00:19:30.947Z,99803.53
2018-08-09T00:22:00.160Z,99797.73
2018-08-09T00:24:29.847Z,99791.66
2018-08-09T00:26:59.166Z,99790.91
2018-08-09T00:29:28.194Z,99798.45
2018-08-09T00:31:57.599Z,99795.70
2018-08-09T00:34:27.078Z,99802.63
2018-08-09T00:36:56.719Z,99800.77
2018-08-09T00:39:26.455Z,99802.44
2018-08-09T00:41:55.604Z,99798.08
2018-08-09T00:44:24.709Z,99806.56
2018-08-09T00:46:53.924Z,99798.55
2018-08-09T00:49:23.094Z,99796.83
2018-08-09T00:51:52.121Z,99797.26
2018-08-09T00:54:21.726Z,99798.03
2018-08-09T00:56:51.316Z,99790.34
2018-08-09T00:59:20.476Z,99791.69
2018-08-09T01:01:49.544Z,99790.05
2018-08-09T01:04:19.679Z,99788.44
2018-08-09T01:06:50.204Z,99788.04
2018-08-09T01:09:19.554Z,99781.90
2018-08-09T01:11:49.062Z,99766.78
2018-08-09T01:14:18.183Z,99783.25
2018-08-09T01:16:47.287Z,99789.13
2018-08-09T01:19:16.516Z,99774.56
2018-08-09T01:21:45.727Z,99788.28
2018-08-09T01:24:15.670Z,99787.91
2018-08-09T01:26:48.870Z,99790.68
2018-08-09T01:29:19.032Z,99793.34
2018-08-09T01:31:49.006Z,99791.16
2018-08-09T01:34:18.650Z,99791.77
2018-08-09T01:36:47.655Z,99797.34
2018-08-09T01:39:16.654Z,99797.59
2018-08-09T01:41:56.561Z,99800.20
2018-08-09T01:44:25.882Z,99808.06
2018-08-09T01:46:54.883Z,99806.02
2018-08-09T01:49:24.031Z,99804.77
2018-08-09T01:51:53.075Z,99810.05
2018-08-09T01:54:22.130Z,99811.93
2018-08-09T01:56:51.150Z,99810.00
2018-08-09T01:59:20.398Z,99803.45
2018-08-09T02:01:49.397Z,99804.00
2018-08-09T02:04:18.456Z,99806.54
2018-08-09T02:06:47.601Z,99804.50
2018-08-09T02:09:21.782Z,99803.73
2018-08-09T02:11:50.948Z,99799.72
2018-08-09T02:14:20.024Z,99798.34
2018-08-09T02:16:49.144Z,99799.45
2018-08-09T02:19:19.505Z,99804.88
2018-08-09T02:21:49.470Z,99802.09
2018-08-09T02:24:18.581Z,99809.52
2018-08-09T02:26:47.735Z,99808.51
2018-08-09T02:29:16.914Z,99811.92
2018-08-09T02:31:45.904Z,99812.77
2018-08-09T02:34:15.206Z,99812.70
2018-08-09T02:36:44.333Z,99813.83
2018-08-09T02:39:13.325Z,99821.47
2018-08-09T02:41:42.948Z,99814.36
2018-08-09T02:44:11.927Z,99816.92
2018-08-09T02:46:41.091Z,99818.74
2018-08-09T02:49:11.018Z,99824.71
2018-08-09T02:51:40.052Z,99824.37
2018-08-09T02:54:09.207Z,99832.45
2018-08-09T02:56:38.182Z,99837.83
2018-08-09T02:59:07.071Z,99844.97
2018-08-09T03:01:36.027Z,99838.59
2018-08-09T03:04:05.432Z,99838.37
2018-08-09T03:06:34.353Z,99848.02
2018-08-09T03:09:03.705Z,99844.97
2018-08-09T03:11:33.325Z,99848.55
2018-08-09T03:14:02.247Z,99844.36
2018-08-09T03:16:31.247Z,99846.70
2018-08-09T03:19:00.407Z,99850.89
2018-08-09T03:21:29.268Z,99844.02
2018-08-09T03:23:58.419Z,99847.27
2018-08-09T03:26:27.883Z,99852.78
2018-08-09T03:28:56.806Z,99851.09
2018-08-09T03:31:25.813Z,99853.09
2018-08-09T03:33:55.169Z,99852.90
2018-08-09T03:36:24.034Z,99861.06
2018-08-09T03:38:53.034Z,99861.41
2018-08-09T03:41:22.555Z,99862.91
2018-08-09T03:43:51.565Z,99869.18
2018-08-09T03:46:20.643Z,99875.25
2018-08-09T03:48:49.956Z,99876.56
2018-08-09T03:51:18.984Z,99877.10
2018-08-09T03:53:48.003Z,99877.06
2018-08-09T03:56:17.423Z,99879.67
2018-08-09T03:58:46.336Z,99872.30
2018-08-09T04:01:15.323Z,99869.18
2018-08-09T04:03:45.422Z,99870.59
2018-08-09T04:06:14.513Z,99868.47
2018-08-09T04:08:43.647Z,99874.05
2018-08-09T04:11:13.033Z,99875.77
2018-08-09T04:13:42.240Z,99887.27
2018-08-09T04:16:11.255Z,99889.47
2018-08-09T04:18:41.926Z,99886.06
2018-08-09T04:21:10.784Z,99886.80
2018-08-09T04:23:39.678Z,99892.97
2018-08-09T04:26:08.722Z,99885.69
2018-08-09T04:28:37.747Z,99885.55
2018-08-09T04:31:06.796Z,99880.99
2018-08-09T04:33:35.864Z,99885.83
2018-08-09T04:36:04.791Z,99885.40
2018-08-09T04:38:33.959Z,99892.61
2018-08-09T04:41:03.524Z,99895.77
2018-08-09T04:43:32.414Z,99891.61
2018-08-09T04:46:01.497Z,99893.73
2018-08-09T04:48:31.048Z,99898.38
2018-08-09T04:51:00.025Z,99898.16
2018-08-09T04:53:29.062Z,99897.85
2018-08-09T04:55:58.513Z,99904.85
2018-08-09T04:58:27.466Z,99903.98
2018-08-09T05:00:56.497Z,99908.52
2018-08-09T05:03:25.819Z,99905.28
2018-08-09T05:05:55.686Z,99911.34
2018-08-09T05:08:24.581Z,99906.98
2018-08-09T05:10:54.215Z,99908.88
2018-08-09T05:13:23.452Z,99902.49
2018-08-09T05:15:52.636Z,99907.39
2018-08-09T05:18:22.395Z,99911.78
2018-08-09T05:20:51.284Z,99916.80
2018-08-09T05:23:21.368Z,99919.81
2018-08-09T05:25:51.110Z,99925.49
2018-08-09T05:28:19.980Z,99927.02
2018-08-09T05:30:49.017Z,99926.33
2018-08-09T05:33:18.386Z,99934.57
2018-08-09T05:35:48.555Z,99932.51
2018-08-09T05:38:17.608Z,99934.57
2018-08-09T05:40:46.849Z,99933.94
2018-08-09T05:43:15.875Z,99934.34
2018-08-09T05:45:44.984Z,99934.05
2018-08-09T05:48:14.363Z,99940.87
2018-08-09T05:50:43.306Z,99938.73
2018-08-09T05:53:12.196Z,99947.34
2018-08-09T05:55:41.346Z,99945.00
2018-08-09T05:58:10.233Z,99944.83
2018-08-09T06:00:39.348Z,99942.77
2018-08-09T06:03:08.299Z,99947.83
2018-08-09T06:05:37.388Z,99948.48
2018-08-09T06:08:06.320Z,99946.97
2018-08-09T06:10:35.601Z,99947.50
2018-08-09T06:13:04.484Z,99941.23
2018-08-09T06:15:33.454Z,99943.95
2018-08-09T06:18:02.781Z,99946.98
2018-08-09T06:20:31.752Z,99947.33
2018-08-09T06:23:00.667Z,99946.64
2018-08-09T06:25:30.343Z,99948.34
2018-08-09T06:27:59.382Z,99946.34
2018-08-09T06:30:28.375Z,99946.48
2018-08-09T06:32:57.369Z,99947.01
2018-08-09T06:35:26.433Z,99948.00
2018-08-09T06:37:55.522Z,99943.64
2018-08-09T06:40:24.929Z,99946.36
2018-08-09T06:42:53.868Z,99956.14
2018-08-09T06:45:22.785Z,99951.72
2018-08-09T06:47:51.863Z,99953.42
2018-08-09T06:50:20.749Z,99950.35
2018-08-09T06:52:49.719Z,99943.37
2018-08-09T06:55:19.113Z,99950.36
2018-08-09T06:57:48.117Z,99948.48
2018-08-09T07:00:17.053Z,99953.70
2018-08-09T07:02:46.556Z,99960.99
2018-08-09T07:05:15.419Z,99956.09
2018-08-09T07:07:44.402Z,99958.48
2018-08-09T07:10:13.856Z,99955.07
2018-08-09T07:12:42.805Z,99954.02
2018-08-09T07:15:13.180Z,99959.30
2018-08-09T07:17:42.255Z,99960.48
2018-08-09T07:20:11.519Z,99960.23
2018-08-09T07:22:41.587Z,99960.36
2018-08-09T07:25:10.619Z,99964.39
2018-08-09T07:27:39.635Z,99967.52
2018-08-09T07:30:10.861Z,99970.11
2018-08-09T07:32:40.222Z,99976.16
2018-08-09T07:35:10.082Z,99964.95
2018-08-09T07:37:39.855Z,99969.48
2018-08-09T07:40:10.860Z,99971.11
2018-08-09T07:42:40.026Z,99968.59
2018-08-09T07:45:11.479Z,99970.89
2018-08-09T07:47:40.433Z,99963.95
2018-08-09T07:50:09.946Z,99964.52
2018-08-09T07:52:39.322Z,99958.58
2018-08-09T07:55:09.933Z,99955.81
2018-08-09T07:57:39.332Z,99961.72
2018-08-09T08:00:10.994Z,99964.62
2018-08-09T08:02:39.978Z,99962.87
2018-08-09T08:05:09.263Z,99957.34
2018-08-09T08:07:38.671Z,99951.93
2018-08-09T08:10:09.803Z,99953.15
2018-08-09T08:12:38.871Z,99952.97
2018-08-09T08:15:09.032Z,99953.48
2018-08-09T08:17:38.996Z,99952.89
2018-08-09T08:20:08.692Z,99943.76
2018-08-09T08:22:37.719Z,99944.60
2018-08-09T08:25:07.388Z,99942.27
2018-08-09T08:27:36.234Z,99937.14
2018-08-09T08:30:09.164Z,99934.16
2018-08-09T08:35:24.331Z,99931.13
2018-08-09T08:37:53.284Z,99927.72
2018-08-09T08:40:22.207Z,99932.16
2018-08-09T08:42:51.316Z,99933.95
2018-08-09T08:45:20.342Z,99931.25
2018-08-09T08:47:49.217Z,99920.41
2018-08-09T08:50:18.745Z,99920.27
2018-08-09T08:52:47.695Z,99915.36
2018-08-09T08:55:16.630Z,99914.52
2018-08-09T08:57:45.509Z,99914.91
2018-08-09T09:00:14.439Z,99902.94
2018-08-09T09:02:43.335Z,99907.27
2018-08-09T09:05:13.810Z,99906.31
2018-08-09T09:07:42.841Z,99908.61
2018-08-09T09:10:13.913Z,99916.13
2018-08-09T09:12:43.070Z,99911.11
2018-08-09T09:15:14.347Z,99902.34
2018-08-09T09:17:44.048Z,99907.70
2018-08-09T09:20:16.186Z,99912.25
2018-08-09T09:22:45.284Z,99904.79
2018-08-09T09:25:14.460Z,99911.08
2018-08-09T09:27:43.904Z,99906.75
2018-08-09T09:30:14.370Z,99915.55
2018-08-09T09:32:43.469Z,99908.62
2018-08-09T09:35:12.317Z,99903.39
2018-08-09T09:37:41.799Z,99901.39
2018-08-09T09:40:11.616Z,99903.93
2018-08-09T09:42:40.499Z,99902.30
2018-08-09T09:45:10.322Z,99896.19
2018-08-09T09:47:39.443Z,99905.33
2018-08-09T09:50:10.417Z,99896.36
2018-08-09T09:52:39.457Z,99905.50
2018-08-09T09:55:08.360Z,99904.44
2018-08-09T09:57:37.747Z,99906.66
2018-08-09T10:00:12.402Z,99907.81
2018-08-09T10:02:41.336Z,99898.47
2018-08-09T10:05:10.384Z,99905.39
2018-08-09T10:07:39.283Z,99893.34
2018-08-09T10:10:08.310Z,99894.27
2018-08-09T10:12:37.322Z,99892.73
2018-08-09T10:15:06.429Z,99897.69
2018-08-09T10:17:35.535Z,99895.36
2018-08-09T10:20:04.558Z,99885.25
2018-08-09T10:22:33.488Z,99882.22
2018-08-09T10:25:02.436Z,99886.00
2018-08-09T10:27:31.367Z,99872.40
2018-08-09T10:30:00.699Z,99883.98
2018-08-09T10:32:29.606Z,99879.64
2018-08-09T10:34:58.587Z,99869.34
2018-08-09T10:37:27.531Z,99864.77
2018-08-09T10:39:56.440Z,99868.88
2018-08-09T10:42:25.309Z,99862.61
2018-08-09T10:44:54.258Z,99864.45
2018-08-09T10:47:23.154Z,99859.83
2018-08-09T10:49:52.010Z,99864.05
2018-08-09T10:52:21.358Z,99859.89
2018-08-09T10:54:50.274Z,99856.69
2018-08-09T10:57:19.362Z,99860.94
2018-08-09T10:59:48.951Z,99870.36
2018-08-09T11:02:17.819Z,99868.13
2018-08-09T11:04:46.757Z,99873.13
2018-08-09T11:07:15.741Z,99867.88
2018-08-09T11:09:44.633Z,99871.91
2018-08-09T11:12:13.506Z,99873.28
2018-08-09T11:14:42.872Z,99863.77
2018-08-09T11:17:11.856Z,99871.95
2018-08-09T11:19:40.722Z,99874.48
2018-08-09T11:22:09.923Z,99874.25
2018-08-09T11:24:38.932Z,99868.47
2018-08-09T11:27:07.695Z,99865.86
2018-08-09T11:29:37.014Z,99858.31
2018-08-09T11:32:06.532Z,99868.27
2018-08-09T11:34:35.499Z,99866.48
2018-08-09T11:37:05.108Z,99869.73
2018-08-09T11:39:34.084Z,99867.38
2018-08-09T11:42:03.035Z,99864.20
2018-08-09T11:44:32.400Z,99862.03
2018-08-09T11:47:01.310Z,99854.89
2018-08-09T11:49:30.359Z,99854.41
2018-08-09T11:51:59.406Z,99848.41
2018-08-09T11:54:28.323Z,99850.63
2018-08-09T11:56:57.383Z,99837.82
2018-08-09T11:59:27.239Z,99850.06
2018-08-09T12:01:56.165Z,99848.73
2018-08-09T12:04:25.188Z,99832.69
2018-08-09T12:06:54.150Z,99828.84
2018-08-09T12:09:23.032Z,99828.20
2018-08-09T12:11:51.949Z,99824.81
2018-08-09T12:14:21.288Z,99824.08
2018-08-09T12:16:50.300Z,99815.34
2018-08-09T12:19:19.211Z,99804.72
2018-08-09T12:21:48.288Z,99805.93
2018-08-09T12:24:17.194Z,99804.45
2018-08-09T12:26:46.183Z,99802.98
2018-08-09T12:29:15.645Z,99801.08
2018-08-09T12:31:44.648Z,99802.96
2018-08-09T12:34:13.572Z,99795.59
2018-08-09T12:36:42.976Z,99782.91
2018-08-09T12:39:13.181Z,99781.92
2018-08-09T12:41:42.747Z,99779.39
2018-08-09T12:44:11.908Z,99781.83
2018-08-09T12:46:40.921Z,99779.72
2018-08-09T12:49:10.246Z,99779.28
2018-08-09T12:51:39.294Z,99777.08
2018-08-09T12:54:08.335Z,99774.92
2018-08-09T12:56:37.730Z,99776.72
2018-08-09T12:59:06.695Z,99769.56
2018-08-09T13:01:35.584Z,99775.03
2018-08-09T13:04:05.018Z,99773.41
2018-08-09T13:06:34.046Z,99782.34
2018-08-09T13:09:02.985Z,99774.66
2018-08-09T13:11:31.926Z,99770.13
2018-08-09T13:14:00.804Z,99773.95
2018-08-09T13:16:29.752Z,99772.78
2018-08-09T13:18:58.724Z,99775.33
2018-08-09T13:21:27.574Z,99780.48
2018-08-09T13:23:56.554Z,99777.45
2018-08-09T13:26:26.075Z,99777.22
2018-08-09T13:28:55.084Z,99778.88
2018-08-09T13:31:24.079Z,99770.44
2018-08-09T13:33:53.216Z,99774.41
2018-08-09T13:36:22.179Z,99778.44
2018-08-09T13:38:51.170Z,99771.45
2018-08-09T13:41:20.391Z,99771.33
2018-08-09T13:43:49.528Z,99769.85
2018-08-09T13:46:18.686Z,99766.44
2018-08-09T13:48:48.096Z,99764.39
2018-08-09T13:51:17.124Z,99765.43
2018-08-09T13:53:46.025Z,99762.41
2018-08-09T13:56:15.550Z,99762.16
2018-08-09T13:58:44.712Z,99754.35
2018-08-09T14:01:13.932Z,99756.11
2018-08-09T14:03:42.933Z,99755.77
2018-08-09T14:06:11.940Z,99759.20
2018-08-09T14:08:40.888Z,99756.48
2018-08-09T14:11:10.285Z,99754.34
2018-08-09T14:13:39.401Z,99753.28
2018-08-09T14:16:09.010Z,99747.36
2018-08-09T14:18:38.166Z,99751.62
2018-08-09T14:21:07.137Z,99752.52
2018-08-09T14:23:35.996Z,99746.16
2018-08-09T14:26:04.922Z,99741.22
2018-08-09T14:28:33.880Z,99745.75
2018-08-09T14:31:02.736Z,99743.47
2018-08-09T14:33:31.694Z,99738.98
2018-08-09T14:36:00.506Z,99742.44
2018-08-09T14:38:29.378Z,99735.89
2018-08-09T14:40:58.253Z,99733.97
2018-08-09T14:43:27.090Z,99736.39
2018-08-09T14:45:55.960Z,99736.50
2018-08-09T14:48:25.266Z,99743.73
2018-08-09T14:50:54.193Z,99736.03
2018-08-09T14:53:23.023Z,99738.36
2018-08-09T14:55:51.924Z,99730.12
2018-08-09T14:58:20.832Z,99727.36
2018-08-09T15:00:49.670Z,99719.94
2018-08-09T15:03:18.541Z,99723.27
2018-08-09T15:05:47.401Z,99731.48
2018-08-09T15:08:16.239Z,99726.23
2018-08-09T15:10:45.158Z,99721.20
2018-08-09T15:13:14.012Z,99722.57
2018-08-09T15:15:42.918Z,99722.08
2018-08-09T15:18:11.903Z,99718.89
2018-08-09T15:20:40.833Z,99727.45
2018-08-09T15:23:09.750Z,99719.16
2018-08-09T15:25:38.669Z,99710.73
2018-08-09T15:28:07.926Z,99711.74
2018-08-09T15:30:36.846Z,99711.73
2018-08-09T15:33:05.960Z,99708.98
2018-08-09T15:35:34.844Z,99713.63
2018-08-09T15:38:03.741Z,99706.70
2018-08-09T15:40:32.722Z,99709.63
2018-08-09T15:43:01.612Z,99708.92
2018-08-09T15:45:30.531Z,99708.48
2018-08-09T15:48:00.027Z,99708.53
2018-08-09T15:50:29.006Z,99701.57
2018-08-09T15:52:57.986Z,99707.05
2018-08-09T15:55:26.965Z,99704.53
2018-08-09T15:57:56.144Z,99707.91
2018-08-09T16:00:25.438Z,99710.77
2018-08-09T16:02:54.651Z,99709.41
2018-08-09T16:05:23.827Z,99718.01
2018-08-09T16:07:52.931Z,99708.84
2018-08-09T16:10:22.045Z,99713.02
2018-08-09T16:12:51.036Z,99718.80
2018-08-09T16:15:20.558Z,99714.70
2018-08-09T16:17:50.222Z,99715.54
2018-08-09T16:20:19.409Z,99715.10
2018-08-09T16:22:48.680Z,99713.95
2018-08-09T16:25:19.516Z,99714.70
2018-08-09T16:27:49.309Z,99717.00
2018-08-09T16:30:20.432Z,99716.28
2018-08-09T16:32:49.721Z,99711.66
2018-08-09T16:35:19.061Z,99713.86
2018-08-09T16:37:48.495Z,99715.88
2018-08-09T16:40:19.411Z,99712.19
2018-08-09T16:42:49.218Z,99719.45
2018-08-09T16:45:19.388Z,99718.62
2018-08-09T16:47:49.095Z,99715.88
2018-08-09T16:50:20.476Z,99711.04
2018-08-09T16:52:50.973Z,99714.20
2018-08-09T16:55:27.417Z,99718.73
2018-08-09T16:57:56.548Z,99715.56
2018-08-09T17:00:26.522Z,99713.89
2018-08-09T17:02:56.097Z,99718.72
2018-08-09T17:05:27.857Z,99719.27
2018-08-09T17:07:57.391Z,99720.41
2018-08-09T17:10:27.144Z,99725.04
2018-08-09T17:12:56.256Z,99719.96
2018-08-09T17:15:27.574Z,99722.78
2018-08-09T17:17:57.341Z,99725.59
2018-08-09T17:20:33.050Z,99727.05
2018-08-09T17:23:03.425Z,99729.02
2018-08-09T17:25:32.651Z,99737.44
2018-08-09T17:28:02.128Z,99741.91
2018-08-09T17:30:31.247Z,99740.36
2018-08-09T17:33:00.440Z,99750.05
2018-08-09T17:35:29.693Z,99750.47
2018-08-09T17:37:58.715Z,99748.16
2018-08-09T17:40:31.338Z,99745.01
2018-08-09T17:43:00.948Z,99750.55
2018-08-09T17:45:33.816Z,99748.59
2018-08-09T17:48:03.699Z,99758.73
2018-08-09T17:50:32.829Z,99756.70
2018-08-09T17:53:03.791Z,99765.75
2018-08-09T17:55:33.368Z,99763.55
2018-08-09T17:58:02.487Z,99766.34
2018-08-09T18:00:33.558Z,99771.51
2018-08-09T18:03:02.632Z,99779.34
2018-08-09T18:05:31.528Z,99779.93
2018-08-09T18:08:01.178Z,99790.63
2018-08-09T18:10:32.540Z,99790.73
2018-08-09T18:13:01.806Z,99796.08
2018-08-09T18:15:31.594Z,99802.81
2018-08-09T18:18:01.582Z,99810.30
2018-08-09T18:20:32.335Z,99813.87
2018-08-09T18:23:02.000Z,99816.34
2018-08-09T18:25:31.052Z,99821.13
2018-08-09T18:28:00.519Z,99821.89
2018-08-09T18:30:29.684Z,99820.78
2018-08-09T18:32:58.917Z,99817.25
2018-08-09T18:35:28.432Z,99822.86
2018-08-09T18:37:57.484Z,99823.84
2018-08-09T18:40:28.218Z,99827.80
2018-08-09T18:42:57.368Z,99835.35
2018-08-09T18:45:34.211Z,99829.12
2018-08-09T18:48:03.179Z,99832.97
2018-08-09T18:50:32.460Z,99831.75
2018-08-09T18:53:01.720Z,99835.45
2018-08-09T18:55:30.779Z,99839.38
2018-08-09T18:57:59.808Z,99842.13
2018-08-09T19:00:30.623Z,99842.64
2018-08-09T19:02:59.847Z,99840.41
2018-08-09T19:05:29.133Z,99836.38
2018-08-09T19:07:58.374Z,99837.11
2018-08-09T19:10:29.176Z,99843.02
2018-08-09T19:12:58.351Z,99841.37
2018-08-09T19:15:27.515Z,99838.88
2018-08-09T19:17:56.746Z,99843.59
2018-08-09T19:20:34.436Z,99840.41
2018-08-09T19:23:03.737Z,99841.91
2018-08-09T19:25:32.778Z,99845.86
2018-08-09T19:28:02.156Z,99850.91
2018-08-09T19:30:32.342Z,99857.75
2018-08-09T19:33:01.480Z,99854.40
2018-08-09T19:35:30.531Z,99858.09
2018-08-09T19:37:59.672Z,99855.05
2018-08-09T19:40:33.548Z,99857.64
2018-08-09T19:43:02.705Z,99855.27
2018-08-09T19:45:31.874Z,99859.50
2018-08-09T19:48:04.670Z,99852.55
2018-08-09T19:50:37.013Z,99853.42
2018-08-09T19:53:06.332Z,99859.68
2018-08-09T19:55:35.374Z,99857.17
2018-08-09T19:58:04.724Z,99859.55
2018-08-09T20:00:37.518Z,99860.72
2018-08-09T20:03:06.440Z,99862.44
2018-08-09T20:05:35.657Z,99870.41
2018-08-09T20:08:04.864Z,99865.13
2018-08-09T20:10:34.064Z,99872.77
2018-08-09T20:13:06.076Z,99878.33
2018-08-09T20:15:39.159Z,99882.74
2018-08-09T20:18:09.457Z,99883.92
2018-08-09T20:20:38.559Z,99887.16
2018-08-09T20:23:07.752Z,99893.75
2018-08-09T20:25:36.838Z,99898.44
2018-08-09T20:28:06.269Z,99900.98
2018-08-09T20:30:35.419Z,99904.00
2018-08-09T20:33:07.303Z,99909.00
2018-08-09T20:35:36.533Z,99919.51
2018-08-09T20:38:07.328Z,99920.02
2018-08-09T20:40:37.970Z,99921.20
2018-08-09T20:43:07.084Z,99919.64
2018-08-09T20:45:39.735Z,99925.56
2018-08-09T20:48:08.956Z,99925.70
2018-08-09T20:50:38.967Z,99924.34
2018-08-09T20:53:08.177Z,99924.14
2018-08-09T20:55:37.352Z,99928.11
2018-08-09T20:58:06.680Z,99918.55
2018-08-09T21:00:36.975Z,99927.00
2018-08-09T21:03:06.115Z,99924.95
2018-08-09T21:05:37.708Z,99938.80
2018-08-09T21:08:07.861Z,99945.45
2018-08-09T21:10:37.441Z,99932.96
2018-08-09T21:13:07.035Z,99940.58
2018-08-09T21:15:36.163Z,99936.30
2018-08-09T21:18:05.259Z,99939.45
2018-08-09T21:20:34.642Z,99938.93
2018-08-09T21:23:04.958Z,99937.18
2018-08-09T21:25:34.379Z,99948.27
2018-08-09T21:28:08.281Z,99952.23
2018-08-09T21:30:47.659Z,99952.39
2018-08-09T21:33:17.321Z,99953.45
2018-08-09T21:35:46.618Z,99946.25
2018-08-09T21:38:15.912Z,99961.58
2018-08-09T21:40:52.081Z,99954.92
2018-08-09T21:43:21.379Z,99959.44
2018-08-09T21:45:50.585Z,99963.05
2018-08-09T21:48:30.197Z,99962.52
2018-08-09T21:50:59.403Z,99965.41
2018-08-09T21:53:42.479Z,99970.27
2018-08-09T21:56:11.535Z,99972.64
2018-08-09T21:58:41.981Z,99975.50
2018-08-09T22:01:13.471Z,99975.18
2018-08-09T22:03:42.646Z,99975.75
2018-08-09T22:06:16.639Z,99966.97
2018-08-09T22:08:51.062Z,99975.41
2018-08-09T22:11:25.304Z,99972.36
2018-08-09T22:14:01.029Z,99973.02
2018-08-09T22:16:35.656Z,99977.56
2018-08-09T22:19:11.022Z,99985.24
2018-08-09T22:21:45.078Z,99985.44
2018-08-09T22:24:17.823Z,99984.45
2018-08-09T22:26:49.268Z,99992.00
2018-08-09T22:29:20.884Z,99992.09
2018-08-09T22:31:50.267Z,99998.89
2018-08-09T22:34:24.938Z,99999.13
2018-08-09T22:36:54.109Z,99991.39
2018-08-09T22:39:23.638Z,99996.00
2018-08-09T22:41:52.717Z,99987.92
2018-08-09T22:44:21.798Z,99984.96
2018-08-09T22:46:50.803Z,99982.35
2018-08-09T22:49:20.683Z,99976.12
2018-08-09T22:51:49.678Z,99981.16
2018-08-09T22:54:18.774Z,99978.01
2018-08-09T22:56:48.380Z,99976.27
2018-08-09T22:59:17.400Z,99977.12
2018-08-09T23:01:46.540Z,99974.62
2018-08-09T23:04:15.824Z,99973.19
2018-08-09T23:06:48.561Z,99980.50
2018-08-09T23:09:17.724Z,99980.84
2018-08-09T23:11:47.604Z,99984.93
2018-08-09T23:14:16.878Z,99986.93
2018-08-09T23:16:46.193Z,99986.58
2018-08-09T23:19:15.513Z,99983.00
2018-08-09T23:21:44.585Z,99983.50
2018-08-09T23:24:15.116Z,99988.23
2018-08-09T23:26:47.642Z,99988.38
2018-08-09T23:29:16.935Z,99998.45
2018-08-09T23:31:46.064Z,99997.88
2018-08-09T23:34:15.080Z,99997.55
2018-08-09T23:36:47.824Z,99994.81
2018-08-09T23:39:17.026Z,99998.20
2018-08-09T23:41:46.060Z,99998.03
2018-08-09T23:44:15.265Z,100002.72
2018-08-09T23:46:44.205Z,100003.89
2018-08-09T23:49:13.508Z,100001.55
2018-08-09T23:51:42.937Z,100004.19
2018-08-09T23:54:12.935Z,100002.23
2018-08-09T23:56:43.242Z,100005.92
2018-08-09T23:59:12.438Z,100010.52
